sensor_id;sensor_type;location;lat;lon;timestamp;P1;durP1;ratioP1;P2;durP2;ratioP2
1885;SDS011;943;51.568;6.998;2022-07-05T00:01:59;4.33;;;2.90;;
1885;SDS011;943;51.568;6.998;2022-07-05T00:04:27;4.10;;;2.63;;
1885;SDS011;943;51.568;6.998;2022-07-05T00:06:55;5.23;;;2.80;;
1885;SDS011;943;51.568;6.998;2022-07-05T00:09:41;3.90;;;2.90;;
1885;SDS011;943;51.568;6.998;2022-07-05T00:12:09;3.83;;;2.50;;
1885;SDS011;943;51.568;6.998;2022-07-05T00:14:39;2.80;;;2.20;;
1885;SDS011;943;51.568;6.998;2022-07-05T00:17:11;4.03;;;2.80;;
1885;SDS011;943;51.568;6.998;2022-07-05T00:19:39;6.10;;;2.70;;
1885;SDS011;943;51.568;6.998;2022-07-05T00:22:08;4.47;;;2.77;;
1885;SDS011;943;51.568;6.998;2022-07-05T00:24:36;4.47;;;2.77;;
1885;SDS011;943;51.568;6.998;2022-07-05T00:27:04;3.93;;;2.73;;
1885;SDS011;943;51.568;6.998;2022-07-05T00:29:31;5.77;;;3.50;;
1885;SDS011;943;51.568;6.998;2022-07-05T00:31:59;4.60;;;3.20;;
1885;SDS011;943;51.568;6.998;2022-07-05T00:34:27;5.17;;;2.43;;
1885;SDS011;943;51.568;6.998;2022-07-05T00:36:54;4.10;;;3.20;;
1885;SDS011;943;51.568;6.998;2022-07-05T00:39:22;4.83;;;3.20;;
1885;SDS011;943;51.568;6.998;2022-07-05T00:41:49;5.23;;;3.00;;
1885;SDS011;943;51.568;6.998;2022-07-05T00:44:17;3.47;;;2.63;;
1885;SDS011;943;51.568;6.998;2022-07-05T00:47:04;5.80;;;2.60;;
1885;SDS011;943;51.568;6.998;2022-07-05T00:49:35;6.03;;;3.47;;
1885;SDS011;943;51.568;6.998;2022-07-05T00:52:05;4.60;;;3.10;;
1885;SDS011;943;51.568;6.998;2022-07-05T00:54:52;4.00;;;3.00;;
1885;SDS011;943;51.568;6.998;2022-07-05T00:57:21;4.47;;;3.17;;
1885;SDS011;943;51.568;6.998;2022-07-05T00:59:50;3.93;;;2.80;;
1885;SDS011;943;51.568;6.998;2022-07-05T01:02:18;3.90;;;2.60;;
1885;SDS011;943;51.568;6.998;2022-07-05T01:04:49;3.90;;;3.00;;
1885;SDS011;943;51.568;6.998;2022-07-05T01:07:19;3.60;;;2.97;;
1885;SDS011;943;51.568;6.998;2022-07-05T01:09:50;4.33;;;3.10;;
1885;SDS011;943;51.568;6.998;2022-07-05T01:12:18;6.17;;;3.33;;
1885;SDS011;943;51.568;6.998;2022-07-05T01:14:45;6.13;;;3.43;;
1885;SDS011;943;51.568;6.998;2022-07-05T01:17:15;3.90;;;2.77;;
1885;SDS011;943;51.568;6.998;2022-07-05T01:19:43;10.80;;;3.60;;
1885;SDS011;943;51.568;6.998;2022-07-05T01:22:12;3.80;;;3.03;;
1885;SDS011;943;51.568;6.998;2022-07-05T01:24:52;4.50;;;2.90;;
1885;SDS011;943;51.568;6.998;2022-07-05T01:27:20;4.93;;;2.93;;
1885;SDS011;943;51.568;6.998;2022-07-05T01:29:48;3.83;;;3.10;;
1885;SDS011;943;51.568;6.998;2022-07-05T01:32:16;5.43;;;3.30;;
1885;SDS011;943;51.568;6.998;2022-07-05T01:34:44;7.40;;;3.60;;
1885;SDS011;943;51.568;6.998;2022-07-05T01:37:14;4.20;;;3.23;;
1885;SDS011;943;51.568;6.998;2022-07-05T01:39:42;4.13;;;2.80;;
1885;SDS011;943;51.568;6.998;2022-07-05T01:42:11;5.00;;;3.00;;
1885;SDS011;943;51.568;6.998;2022-07-05T01:44:39;3.10;;;2.43;;
1885;SDS011;943;51.568;6.998;2022-07-05T01:47:07;4.40;;;2.73;;
1885;SDS011;943;51.568;6.998;2022-07-05T01:49:37;4.70;;;3.00;;
1885;SDS011;943;51.568;6.998;2022-07-05T01:52:12;4.40;;;2.87;;
1885;SDS011;943;51.568;6.998;2022-07-05T01:54:43;7.40;;;3.00;;
1885;SDS011;943;51.568;6.998;2022-07-05T01:57:12;3.87;;;3.10;;
1885;SDS011;943;51.568;6.998;2022-07-05T01:59:40;6.33;;;3.13;;
1885;SDS011;943;51.568;6.998;2022-07-05T02:02:08;4.27;;;2.80;;
1885;SDS011;943;51.568;6.998;2022-07-05T02:04:36;3.97;;;2.30;;
1885;SDS011;943;51.568;6.998;2022-07-05T02:07:04;5.30;;;3.10;;
1885;SDS011;943;51.568;6.998;2022-07-05T02:09:35;5.87;;;2.83;;
1885;SDS011;943;51.568;6.998;2022-07-05T02:12:04;4.90;;;3.13;;
1885;SDS011;943;51.568;6.998;2022-07-05T02:14:32;4.70;;;3.30;;
1885;SDS011;943;51.568;6.998;2022-07-05T02:17:01;4.07;;;3.00;;
1885;SDS011;943;51.568;6.998;2022-07-05T02:19:29;3.40;;;2.57;;
1885;SDS011;943;51.568;6.998;2022-07-05T02:21:56;5.70;;;2.97;;
1885;SDS011;943;51.568;6.998;2022-07-05T02:24:27;4.20;;;2.93;;
1885;SDS011;943;51.568;6.998;2022-07-05T02:26:55;5.03;;;3.20;;
1885;SDS011;943;51.568;6.998;2022-07-05T02:29:23;6.57;;;3.40;;
1885;SDS011;943;51.568;6.998;2022-07-05T02:31:51;5.27;;;3.37;;
1885;SDS011;943;51.568;6.998;2022-07-05T02:34:19;6.70;;;3.47;;
1885;SDS011;943;51.568;6.998;2022-07-05T02:36:46;5.00;;;3.40;;
1885;SDS011;943;51.568;6.998;2022-07-05T02:39:14;4.53;;;3.20;;
1885;SDS011;943;51.568;6.998;2022-07-05T02:41:41;4.30;;;3.47;;
1885;SDS011;943;51.568;6.998;2022-07-05T02:44:09;4.40;;;3.10;;
1885;SDS011;943;51.568;6.998;2022-07-05T02:46:36;6.13;;;3.60;;
1885;SDS011;943;51.568;6.998;2022-07-05T02:49:04;5.40;;;3.47;;
1885;SDS011;943;51.568;6.998;2022-07-05T02:51:32;6.23;;;3.10;;
1885;SDS011;943;51.568;6.998;2022-07-05T02:54:00;4.20;;;3.60;;
1885;SDS011;943;51.568;6.998;2022-07-05T02:56:27;7.77;;;3.90;;
1885;SDS011;943;51.568;6.998;2022-07-05T02:58:55;4.10;;;3.30;;
1885;SDS011;943;51.568;6.998;2022-07-05T03:01:22;6.33;;;2.70;;
1885;SDS011;943;51.568;6.998;2022-07-05T03:03:56;5.23;;;3.13;;
1885;SDS011;943;51.568;6.998;2022-07-05T03:06:25;8.07;;;3.37;;
1885;SDS011;943;51.568;6.998;2022-07-05T03:08:53;6.10;;;3.60;;
1885;SDS011;943;51.568;6.998;2022-07-05T03:11:20;6.03;;;3.90;;
1885;SDS011;943;51.568;6.998;2022-07-05T03:13:54;6.90;;;3.10;;
1885;SDS011;943;51.568;6.998;2022-07-05T03:16:29;4.03;;;3.07;;
1885;SDS011;943;51.568;6.998;2022-07-05T03:18:58;4.87;;;3.50;;
1885;SDS011;943;51.568;6.998;2022-07-05T03:21:25;5.23;;;3.77;;
1885;SDS011;943;51.568;6.998;2022-07-05T03:23:53;6.10;;;3.70;;
1885;SDS011;943;51.568;6.998;2022-07-05T03:26:20;4.50;;;3.77;;
1885;SDS011;943;51.568;6.998;2022-07-05T03:28:49;12.47;;;4.27;;
1885;SDS011;943;51.568;6.998;2022-07-05T03:31:16;5.20;;;3.40;;
1885;SDS011;943;51.568;6.998;2022-07-05T03:33:44;5.93;;;3.50;;
1885;SDS011;943;51.568;6.998;2022-07-05T03:36:12;4.10;;;3.43;;
1885;SDS011;943;51.568;6.998;2022-07-05T03:38:40;6.67;;;3.90;;
1885;SDS011;943;51.568;6.998;2022-07-05T03:41:07;7.10;;;4.00;;
1885;SDS011;943;51.568;6.998;2022-07-05T03:43:35;6.03;;;3.73;;
1885;SDS011;943;51.568;6.998;2022-07-05T03:46:02;9.73;;;5.23;;
1885;SDS011;943;51.568;6.998;2022-07-05T03:48:33;8.13;;;4.53;;
1885;SDS011;943;51.568;6.998;2022-07-05T03:51:16;5.03;;;4.53;;
1885;SDS011;943;51.568;6.998;2022-07-05T03:53:45;6.43;;;5.77;;
1885;SDS011;943;51.568;6.998;2022-07-05T03:56:12;12.73;;;6.37;;
1885;SDS011;943;51.568;6.998;2022-07-05T03:58:40;7.77;;;5.87;;
1885;SDS011;943;51.568;6.998;2022-07-05T04:01:08;8.50;;;5.97;;
1885;SDS011;943;51.568;6.998;2022-07-05T04:03:35;6.70;;;5.33;;
1885;SDS011;943;51.568;6.998;2022-07-05T04:06:08;8.53;;;6.33;;
1885;SDS011;943;51.568;6.998;2022-07-05T04:08:37;8.63;;;5.43;;
1885;SDS011;943;51.568;6.998;2022-07-05T04:11:04;7.03;;;5.00;;
1885;SDS011;943;51.568;6.998;2022-07-05T04:13:32;6.67;;;5.70;;
1885;SDS011;943;51.568;6.998;2022-07-05T04:16:00;8.37;;;5.30;;
1885;SDS011;943;51.568;6.998;2022-07-05T04:18:28;6.10;;;5.30;;
1885;SDS011;943;51.568;6.998;2022-07-05T04:20:56;7.60;;;5.97;;
1885;SDS011;943;51.568;6.998;2022-07-05T04:23:23;7.13;;;6.43;;
1885;SDS011;943;51.568;6.998;2022-07-05T04:25:52;8.07;;;6.43;;
1885;SDS011;943;51.568;6.998;2022-07-05T04:28:21;16.83;;;6.57;;
1885;SDS011;943;51.568;6.998;2022-07-05T04:30:50;7.90;;;6.53;;
1885;SDS011;943;51.568;6.998;2022-07-05T04:33:17;12.33;;;5.90;;
1885;SDS011;943;51.568;6.998;2022-07-05T04:35:45;8.43;;;7.20;;
1885;SDS011;943;51.568;6.998;2022-07-05T04:38:13;6.40;;;5.80;;
1885;SDS011;943;51.568;6.998;2022-07-05T04:40:41;8.10;;;7.30;;
1885;SDS011;943;51.568;6.998;2022-07-05T04:43:08;8.63;;;7.70;;
1885;SDS011;943;51.568;6.998;2022-07-05T04:45:36;11.73;;;6.77;;
1885;SDS011;943;51.568;6.998;2022-07-05T04:48:04;11.47;;;7.87;;
1885;SDS011;943;51.568;6.998;2022-07-05T04:50:32;10.33;;;7.30;;
1885;SDS011;943;51.568;6.998;2022-07-05T04:52:59;8.73;;;7.40;;
1885;SDS011;943;51.568;6.998;2022-07-05T04:55:27;11.87;;;8.00;;
1885;SDS011;943;51.568;6.998;2022-07-05T04:57:54;7.00;;;6.00;;
1885;SDS011;943;51.568;6.998;2022-07-05T05:00:22;7.77;;;6.50;;
1885;SDS011;943;51.568;6.998;2022-07-05T05:02:49;10.70;;;6.90;;
1885;SDS011;943;51.568;6.998;2022-07-05T05:05:17;8.10;;;6.23;;
1885;SDS011;943;51.568;6.998;2022-07-05T05:07:45;8.90;;;5.97;;
1885;SDS011;943;51.568;6.998;2022-07-05T05:10:12;7.50;;;6.37;;
1885;SDS011;943;51.568;6.998;2022-07-05T05:12:40;7.00;;;6.00;;
1885;SDS011;943;51.568;6.998;2022-07-05T05:15:08;7.43;;;6.17;;
1885;SDS011;943;51.568;6.998;2022-07-05T05:17:37;7.00;;;5.73;;
1885;SDS011;943;51.568;6.998;2022-07-05T05:20:10;5.53;;;3.97;;
1885;SDS011;943;51.568;6.998;2022-07-05T05:22:43;5.37;;;3.77;;
1885;SDS011;943;51.568;6.998;2022-07-05T05:25:13;5.90;;;4.67;;
1885;SDS011;943;51.568;6.998;2022-07-05T05:27:42;7.30;;;4.47;;
1885;SDS011;943;51.568;6.998;2022-07-05T05:30:15;7.50;;;4.07;;
1885;SDS011;943;51.568;6.998;2022-07-05T05:32:46;5.73;;;4.40;;
1885;SDS011;943;51.568;6.998;2022-07-05T05:35:14;5.73;;;3.87;;
1885;SDS011;943;51.568;6.998;2022-07-05T05:37:47;5.20;;;3.27;;
1885;SDS011;943;51.568;6.998;2022-07-05T05:40:20;4.50;;;4.10;;
1885;SDS011;943;51.568;6.998;2022-07-05T05:42:51;5.40;;;4.43;;
1885;SDS011;943;51.568;6.998;2022-07-05T05:45:21;10.93;;;4.50;;
1885;SDS011;943;51.568;6.998;2022-07-05T05:47:50;5.50;;;4.83;;
1885;SDS011;943;51.568;6.998;2022-07-05T05:50:30;6.57;;;4.43;;
1885;SDS011;943;51.568;6.998;2022-07-05T05:53:07;6.93;;;4.10;;
1885;SDS011;943;51.568;6.998;2022-07-05T05:55:34;5.70;;;4.23;;
1885;SDS011;943;51.568;6.998;2022-07-05T06:00:44;6.33;;;4.13;;
1885;SDS011;943;51.568;6.998;2022-07-05T06:03:16;4.87;;;4.10;;
1885;SDS011;943;51.568;6.998;2022-07-05T06:05:49;3.80;;;3.40;;
1885;SDS011;943;51.568;6.998;2022-07-05T06:08:18;5.47;;;3.47;;
1885;SDS011;943;51.568;6.998;2022-07-05T06:10:46;5.17;;;3.97;;
1885;SDS011;943;51.568;6.998;2022-07-05T06:13:24;6.40;;;3.60;;
1885;SDS011;943;51.568;6.998;2022-07-05T06:15:55;4.13;;;3.63;;
1885;SDS011;943;51.568;6.998;2022-07-05T06:18:24;4.63;;;2.93;;
1885;SDS011;943;51.568;6.998;2022-07-05T06:20:53;8.00;;;2.70;;
1885;SDS011;943;51.568;6.998;2022-07-05T06:23:22;4.40;;;2.10;;
1885;SDS011;943;51.568;6.998;2022-07-05T06:25:50;2.80;;;1.87;;
1885;SDS011;943;51.568;6.998;2022-07-05T06:28:18;5.13;;;2.47;;
1885;SDS011;943;51.568;6.998;2022-07-05T06:30:46;3.60;;;1.90;;
1885;SDS011;943;51.568;6.998;2022-07-05T06:33:16;3.57;;;2.20;;
1885;SDS011;943;51.568;6.998;2022-07-05T06:35:44;3.30;;;1.67;;
1885;SDS011;943;51.568;6.998;2022-07-05T06:38:13;2.80;;;1.60;;
1885;SDS011;943;51.568;6.998;2022-07-05T06:40:42;3.63;;;1.57;;
1885;SDS011;943;51.568;6.998;2022-07-05T06:43:11;3.10;;;1.60;;
1885;SDS011;943;51.568;6.998;2022-07-05T06:45:40;2.27;;;1.40;;
1885;SDS011;943;51.568;6.998;2022-07-05T06:48:09;3.50;;;1.67;;
1885;SDS011;943;51.568;6.998;2022-07-05T06:50:39;3.67;;;1.83;;
1885;SDS011;943;51.568;6.998;2022-07-05T06:53:10;3.03;;;1.53;;
1885;SDS011;943;51.568;6.998;2022-07-05T06:55:38;4.40;;;1.93;;
1885;SDS011;943;51.568;6.998;2022-07-05T06:58:18;3.60;;;1.83;;
1885;SDS011;943;51.568;6.998;2022-07-05T07:00:46;3.23;;;1.70;;
1885;SDS011;943;51.568;6.998;2022-07-05T07:03:33;3.63;;;2.30;;
1885;SDS011;943;51.568;6.998;2022-07-05T07:06:21;2.67;;;1.80;;
1885;SDS011;943;51.568;6.998;2022-07-05T07:08:49;8.47;;;1.73;;
1885;SDS011;943;51.568;6.998;2022-07-05T07:11:35;3.90;;;1.67;;
1885;SDS011;943;51.568;6.998;2022-07-05T07:14:03;3.20;;;1.40;;
1885;SDS011;943;51.568;6.998;2022-07-05T07:16:30;2.33;;;1.07;;
1885;SDS011;943;51.568;6.998;2022-07-05T07:18:59;3.50;;;1.57;;
1885;SDS011;943;51.568;6.998;2022-07-05T07:21:38;2.83;;;1.30;;
1885;SDS011;943;51.568;6.998;2022-07-05T07:24:08;4.47;;;1.53;;
1885;SDS011;943;51.568;6.998;2022-07-05T07:26:36;3.03;;;1.50;;
1885;SDS011;943;51.568;6.998;2022-07-05T07:29:23;4.47;;;1.40;;
1885;SDS011;943;51.568;6.998;2022-07-05T07:31:51;4.00;;;1.30;;
1885;SDS011;943;51.568;6.998;2022-07-05T07:34:18;3.43;;;1.30;;
1885;SDS011;943;51.568;6.998;2022-07-05T07:36:46;3.20;;;1.10;;
1885;SDS011;943;51.568;6.998;2022-07-05T07:39:15;3.57;;;1.60;;
1885;SDS011;943;51.568;6.998;2022-07-05T07:41:43;2.90;;;1.53;;
1885;SDS011;943;51.568;6.998;2022-07-05T07:44:11;4.27;;;1.60;;
1885;SDS011;943;51.568;6.998;2022-07-05T07:46:39;3.40;;;1.70;;
1885;SDS011;943;51.568;6.998;2022-07-05T07:49:08;2.97;;;1.50;;
1885;SDS011;943;51.568;6.998;2022-07-05T07:51:37;3.30;;;1.50;;
1885;SDS011;943;51.568;6.998;2022-07-05T07:54:07;2.57;;;2.00;;
1885;SDS011;943;51.568;6.998;2022-07-05T07:56:35;3.87;;;1.97;;
1885;SDS011;943;51.568;6.998;2022-07-05T07:59:03;4.30;;;1.47;;
1885;SDS011;943;51.568;6.998;2022-07-05T08:01:30;6.47;;;1.40;;
1885;SDS011;943;51.568;6.998;2022-07-05T08:04:05;7.13;;;1.67;;
1885;SDS011;943;51.568;6.998;2022-07-05T08:06:33;2.93;;;1.23;;
1885;SDS011;943;51.568;6.998;2022-07-05T08:09:00;4.17;;;1.83;;
1885;SDS011;943;51.568;6.998;2022-07-05T08:11:28;3.10;;;2.00;;
1885;SDS011;943;51.568;6.998;2022-07-05T08:13:55;5.27;;;1.80;;
1885;SDS011;943;51.568;6.998;2022-07-05T08:16:23;2.80;;;1.63;;
1885;SDS011;943;51.568;6.998;2022-07-05T08:18:50;2.67;;;1.60;;
1885;SDS011;943;51.568;6.998;2022-07-05T08:21:37;4.10;;;1.80;;
1885;SDS011;943;51.568;6.998;2022-07-05T08:24:09;4.40;;;1.20;;
1885;SDS011;943;51.568;6.998;2022-07-05T08:26:39;4.70;;;1.70;;
1885;SDS011;943;51.568;6.998;2022-07-05T08:29:09;3.80;;;1.83;;
1885;SDS011;943;51.568;6.998;2022-07-05T08:31:48;7.00;;;1.93;;
1885;SDS011;943;51.568;6.998;2022-07-05T08:34:19;3.07;;;1.30;;
1885;SDS011;943;51.568;6.998;2022-07-05T08:36:47;2.30;;;1.33;;
1885;SDS011;943;51.568;6.998;2022-07-05T08:39:15;3.97;;;1.70;;
1885;SDS011;943;51.568;6.998;2022-07-05T08:41:49;4.33;;;1.63;;
1885;SDS011;943;51.568;6.998;2022-07-05T08:44:18;6.53;;;3.20;;
1885;SDS011;943;51.568;6.998;2022-07-05T08:46:49;6.23;;;2.23;;
1885;SDS011;943;51.568;6.998;2022-07-05T08:49:20;6.60;;;2.47;;
1885;SDS011;943;51.568;6.998;2022-07-05T08:51:54;4.93;;;2.03;;
1885;SDS011;943;51.568;6.998;2022-07-05T08:54:23;2.70;;;1.40;;
1885;SDS011;943;51.568;6.998;2022-07-05T08:56:51;2.70;;;1.70;;
1885;SDS011;943;51.568;6.998;2022-07-05T08:59:39;2.80;;;1.57;;
1885;SDS011;943;51.568;6.998;2022-07-05T09:02:11;3.73;;;1.57;;
1885;SDS011;943;51.568;6.998;2022-07-05T09:04:44;7.77;;;1.80;;
1885;SDS011;943;51.568;6.998;2022-07-05T09:07:15;3.87;;;1.53;;
1885;SDS011;943;51.568;6.998;2022-07-05T09:09:47;7.57;;;1.83;;
1885;SDS011;943;51.568;6.998;2022-07-05T09:12:18;7.30;;;1.90;;
1885;SDS011;943;51.568;6.998;2022-07-05T09:14:51;2.20;;;1.10;;
1885;SDS011;943;51.568;6.998;2022-07-05T09:17:23;3.50;;;1.80;;
1885;SDS011;943;51.568;6.998;2022-07-05T09:20:06;3.13;;;1.80;;
1885;SDS011;943;51.568;6.998;2022-07-05T09:22:48;2.90;;;1.40;;
1885;SDS011;943;51.568;6.998;2022-07-05T09:25:22;5.10;;;1.33;;
1885;SDS011;943;51.568;6.998;2022-07-05T09:27:55;4.80;;;1.40;;
1885;SDS011;943;51.568;6.998;2022-07-05T09:30:36;8.30;;;1.97;;
1885;SDS011;943;51.568;6.998;2022-07-05T09:33:16;4.37;;;1.40;;
1885;SDS011;943;51.568;6.998;2022-07-05T09:35:54;3.20;;;1.70;;
1885;SDS011;943;51.568;6.998;2022-07-05T09:38:27;4.53;;;1.50;;
1885;SDS011;943;51.568;6.998;2022-07-05T09:40:57;5.43;;;1.43;;
1885;SDS011;943;51.568;6.998;2022-07-05T09:43:40;2.30;;;1.30;;
1885;SDS011;943;51.568;6.998;2022-07-05T09:46:07;2.40;;;1.50;;
1885;SDS011;943;51.568;6.998;2022-07-05T09:48:35;5.23;;;2.20;;
1885;SDS011;943;51.568;6.998;2022-07-05T09:51:09;3.17;;;1.63;;
1885;SDS011;943;51.568;6.998;2022-07-05T09:54:00;3.07;;;1.50;;
1885;SDS011;943;51.568;6.998;2022-07-05T09:56:50;4.40;;;1.60;;
1885;SDS011;943;51.568;6.998;2022-07-05T09:59:18;4.73;;;1.53;;
1885;SDS011;943;51.568;6.998;2022-07-05T10:01:49;4.53;;;1.37;;
1885;SDS011;943;51.568;6.998;2022-07-05T10:04:18;2.20;;;1.30;;
1885;SDS011;943;51.568;6.998;2022-07-05T10:06:46;2.50;;;1.20;;
1885;SDS011;943;51.568;6.998;2022-07-05T10:09:14;3.13;;;1.60;;
1885;SDS011;943;51.568;6.998;2022-07-05T10:11:45;3.40;;;1.50;;
1885;SDS011;943;51.568;6.998;2022-07-05T10:14:17;2.67;;;1.30;;
1885;SDS011;943;51.568;6.998;2022-07-05T10:16:59;2.73;;;1.53;;
1885;SDS011;943;51.568;6.998;2022-07-05T10:19:32;2.97;;;1.50;;
1885;SDS011;943;51.568;6.998;2022-07-05T10:22:08;2.37;;;1.33;;
1885;SDS011;943;51.568;6.998;2022-07-05T10:24:45;5.60;;;1.67;;
1885;SDS011;943;51.568;6.998;2022-07-05T10:27:14;5.67;;;1.63;;
1885;SDS011;943;51.568;6.998;2022-07-05T10:29:45;2.40;;;1.20;;
1885;SDS011;943;51.568;6.998;2022-07-05T10:32:18;4.90;;;1.70;;
1885;SDS011;943;51.568;6.998;2022-07-05T10:34:48;3.83;;;1.50;;
1885;SDS011;943;51.568;6.998;2022-07-05T10:37:30;3.20;;;1.73;;
1885;SDS011;943;51.568;6.998;2022-07-05T10:40:02;2.57;;;1.40;;
1885;SDS011;943;51.568;6.998;2022-07-05T10:42:35;4.13;;;1.83;;
1885;SDS011;943;51.568;6.998;2022-07-05T10:45:31;2.57;;;1.67;;
1885;SDS011;943;51.568;6.998;2022-07-05T10:58:36;3.43;;;1.90;;
1885;SDS011;943;51.568;6.998;2022-07-05T11:11:42;2.80;;;1.97;;
1885;SDS011;943;51.568;6.998;2022-07-05T11:14:33;2.63;;;1.93;;
1885;SDS011;943;51.568;6.998;2022-07-05T11:20:17;4.80;;;1.87;;
1885;SDS011;943;51.568;6.998;2022-07-05T11:23:06;3.13;;;2.00;;
1885;SDS011;943;51.568;6.998;2022-07-05T11:25:39;6.63;;;1.67;;
1885;SDS011;943;51.568;6.998;2022-07-05T11:28:17;3.60;;;2.07;;
1885;SDS011;943;51.568;6.998;2022-07-05T11:30:56;4.10;;;2.17;;
1885;SDS011;943;51.568;6.998;2022-07-05T11:33:28;4.60;;;1.90;;
1885;SDS011;943;51.568;6.998;2022-07-05T11:36:05;3.50;;;1.30;;
1885;SDS011;943;51.568;6.998;2022-07-05T11:41:46;4.17;;;1.50;;
1885;SDS011;943;51.568;6.998;2022-07-05T11:44:15;2.67;;;1.87;;
1885;SDS011;943;51.568;6.998;2022-07-05T11:46:44;3.00;;;1.87;;
1885;SDS011;943;51.568;6.998;2022-07-05T11:49:18;2.87;;;1.40;;
1885;SDS011;943;51.568;6.998;2022-07-05T11:51:58;4.00;;;1.90;;
1885;SDS011;943;51.568;6.998;2022-07-05T11:54:30;4.40;;;2.00;;
1885;SDS011;943;51.568;6.998;2022-07-05T11:57:00;2.83;;;1.37;;
1885;SDS011;943;51.568;6.998;2022-07-05T11:59:34;2.97;;;1.77;;
1885;SDS011;943;51.568;6.998;2022-07-05T12:02:08;4.30;;;1.93;;
1885;SDS011;943;51.568;6.998;2022-07-05T12:04:35;3.30;;;2.17;;
1885;SDS011;943;51.568;6.998;2022-07-05T12:07:04;4.00;;;2.33;;
1885;SDS011;943;51.568;6.998;2022-07-05T12:09:33;3.80;;;2.07;;
1885;SDS011;943;51.568;6.998;2022-07-05T12:12:22;41.80;;;21.80;;
1885;SDS011;943;51.568;6.998;2022-07-05T12:15:19;11.93;;;8.23;;
1885;SDS011;943;51.568;6.998;2022-07-05T12:17:50;2.77;;;1.40;;
1885;SDS011;943;51.568;6.998;2022-07-05T12:20:22;6.83;;;2.40;;
1885;SDS011;943;51.568;6.998;2022-07-05T12:22:51;4.80;;;2.43;;
1885;SDS011;943;51.568;6.998;2022-07-05T12:25:20;3.50;;;1.60;;
1885;SDS011;943;51.568;6.998;2022-07-05T12:27:52;4.93;;;2.27;;
1885;SDS011;943;51.568;6.998;2022-07-05T12:30:24;3.70;;;2.47;;
1885;SDS011;943;51.568;6.998;2022-07-05T12:32:58;4.10;;;2.10;;
1885;SDS011;943;51.568;6.998;2022-07-05T12:35:38;5.57;;;2.60;;
1885;SDS011;943;51.568;6.998;2022-07-05T12:38:14;4.50;;;2.37;;
1885;SDS011;943;51.568;6.998;2022-07-05T12:40:47;5.90;;;2.37;;
1885;SDS011;943;51.568;6.998;2022-07-05T12:43:26;3.10;;;1.70;;
1885;SDS011;943;51.568;6.998;2022-07-05T12:46:00;3.67;;;1.93;;
1885;SDS011;943;51.568;6.998;2022-07-05T12:48:35;3.20;;;1.90;;
1885;SDS011;943;51.568;6.998;2022-07-05T12:51:08;4.43;;;2.10;;
1885;SDS011;943;51.568;6.998;2022-07-05T12:53:49;4.77;;;2.50;;
1885;SDS011;943;51.568;6.998;2022-07-05T12:56:35;3.50;;;2.30;;
1885;SDS011;943;51.568;6.998;2022-07-05T13:02:35;2.80;;;2.00;;
1885;SDS011;943;51.568;6.998;2022-07-05T13:05:26;6.83;;;2.07;;
1885;SDS011;943;51.568;6.998;2022-07-05T13:07:54;4.57;;;1.90;;
1885;SDS011;943;51.568;6.998;2022-07-05T13:10:23;2.67;;;1.57;;
1885;SDS011;943;51.568;6.998;2022-07-05T13:13:05;2.47;;;1.90;;
1885;SDS011;943;51.568;6.998;2022-07-05T13:15:33;3.90;;;1.80;;
1885;SDS011;943;51.568;6.998;2022-07-05T13:18:07;10.20;;;2.13;;
1885;SDS011;943;51.568;6.998;2022-07-05T13:20:34;3.20;;;2.27;;
1885;SDS011;943;51.568;6.998;2022-07-05T13:23:02;5.70;;;2.37;;
1885;SDS011;943;51.568;6.998;2022-07-05T13:25:29;5.23;;;2.00;;
1885;SDS011;943;51.568;6.998;2022-07-05T13:27:57;4.50;;;2.30;;
1885;SDS011;943;51.568;6.998;2022-07-05T13:30:26;4.27;;;2.37;;
1885;SDS011;943;51.568;6.998;2022-07-05T13:32:54;2.63;;;1.90;;
1885;SDS011;943;51.568;6.998;2022-07-05T13:35:22;4.13;;;1.80;;
1885;SDS011;943;51.568;6.998;2022-07-05T13:37:50;5.30;;;2.03;;
1885;SDS011;943;51.568;6.998;2022-07-05T13:40:18;2.67;;;1.90;;
1885;SDS011;943;51.568;6.998;2022-07-05T13:42:46;3.30;;;1.73;;
1885;SDS011;943;51.568;6.998;2022-07-05T13:45:14;3.73;;;2.20;;
1885;SDS011;943;51.568;6.998;2022-07-05T13:47:41;10.50;;;2.07;;
1885;SDS011;943;51.568;6.998;2022-07-05T13:50:09;10.53;;;2.50;;
1885;SDS011;943;51.568;6.998;2022-07-05T13:52:57;5.23;;;2.10;;
1885;SDS011;943;51.568;6.998;2022-07-05T13:55:28;3.70;;;2.13;;
1885;SDS011;943;51.568;6.998;2022-07-05T13:57:58;3.57;;;2.23;;
1885;SDS011;943;51.568;6.998;2022-07-05T14:00:26;2.77;;;2.20;;
1885;SDS011;943;51.568;6.998;2022-07-05T14:02:54;3.90;;;2.13;;
1885;SDS011;943;51.568;6.998;2022-07-05T14:05:29;5.00;;;2.80;;
1885;SDS011;943;51.568;6.998;2022-07-05T14:07:57;3.70;;;2.50;;
1885;SDS011;943;51.568;6.998;2022-07-05T14:10:25;5.87;;;2.30;;
1885;SDS011;943;51.568;6.998;2022-07-05T14:12:52;4.77;;;1.80;;
1885;SDS011;943;51.568;6.998;2022-07-05T14:15:20;6.83;;;2.27;;
1885;SDS011;943;51.568;6.998;2022-07-05T14:17:47;5.20;;;2.23;;
1885;SDS011;943;51.568;6.998;2022-07-05T14:20:15;5.23;;;2.70;;
1885;SDS011;943;51.568;6.998;2022-07-05T14:22:43;4.83;;;2.60;;
1885;SDS011;943;51.568;6.998;2022-07-05T14:25:10;4.73;;;2.27;;
1885;SDS011;943;51.568;6.998;2022-07-05T14:27:38;6.27;;;2.37;;
1885;SDS011;943;51.568;6.998;2022-07-05T14:30:05;5.70;;;2.63;;
1885;SDS011;943;51.568;6.998;2022-07-05T14:32:36;4.20;;;2.37;;
1885;SDS011;943;51.568;6.998;2022-07-05T14:35:11;8.33;;;3.40;;
1885;SDS011;943;51.568;6.998;2022-07-05T14:37:39;5.20;;;3.30;;
1885;SDS011;943;51.568;6.998;2022-07-05T14:40:07;3.90;;;2.50;;
1885;SDS011;943;51.568;6.998;2022-07-05T14:42:36;4.30;;;2.90;;
1885;SDS011;943;51.568;6.998;2022-07-05T14:45:03;7.10;;;3.30;;
1885;SDS011;943;51.568;6.998;2022-07-05T14:47:32;4.83;;;2.63;;
1885;SDS011;943;51.568;6.998;2022-07-05T14:50:00;5.50;;;2.90;;
1885;SDS011;943;51.568;6.998;2022-07-05T14:52:27;5.40;;;3.10;;
1885;SDS011;943;51.568;6.998;2022-07-05T14:54:57;3.73;;;2.77;;
1885;SDS011;943;51.568;6.998;2022-07-05T14:57:24;3.80;;;3.00;;
1885;SDS011;943;51.568;6.998;2022-07-05T14:59:52;5.73;;;3.43;;
1885;SDS011;943;51.568;6.998;2022-07-05T15:02:20;5.87;;;3.70;;
1885;SDS011;943;51.568;6.998;2022-07-05T15:04:48;3.63;;;2.70;;
1885;SDS011;943;51.568;6.998;2022-07-05T15:07:16;6.37;;;3.23;;
1885;SDS011;943;51.568;6.998;2022-07-05T15:09:43;4.57;;;3.40;;
1885;SDS011;943;51.568;6.998;2022-07-05T15:12:11;4.90;;;2.77;;
1885;SDS011;943;51.568;6.998;2022-07-05T15:14:38;5.20;;;2.70;;
1885;SDS011;943;51.568;6.998;2022-07-05T15:17:06;5.20;;;2.50;;
1885;SDS011;943;51.568;6.998;2022-07-05T15:19:33;4.73;;;2.90;;
1885;SDS011;943;51.568;6.998;2022-07-05T15:22:01;6.03;;;2.60;;
1885;SDS011;943;51.568;6.998;2022-07-05T15:24:29;3.90;;;2.37;;
1885;SDS011;943;51.568;6.998;2022-07-05T15:26:58;11.10;;;3.10;;
1885;SDS011;943;51.568;6.998;2022-07-05T15:29:43;4.17;;;2.53;;
1885;SDS011;943;51.568;6.998;2022-07-05T15:32:11;7.03;;;2.80;;
1885;SDS011;943;51.568;6.998;2022-07-05T15:34:39;7.33;;;2.70;;
1885;SDS011;943;51.568;6.998;2022-07-05T15:37:07;4.00;;;2.13;;
1885;SDS011;943;51.568;6.998;2022-07-05T15:39:34;5.20;;;2.47;;
1885;SDS011;943;51.568;6.998;2022-07-05T15:42:04;4.13;;;3.10;;
1885;SDS011;943;51.568;6.998;2022-07-05T15:44:34;4.00;;;3.03;;
1885;SDS011;943;51.568;6.998;2022-07-05T15:47:01;4.00;;;2.53;;
1885;SDS011;943;51.568;6.998;2022-07-05T15:49:30;6.70;;;3.20;;
1885;SDS011;943;51.568;6.998;2022-07-05T15:51:59;6.90;;;2.40;;
1885;SDS011;943;51.568;6.998;2022-07-05T15:54:29;10.73;;;3.07;;
1885;SDS011;943;51.568;6.998;2022-07-05T15:56:57;5.53;;;3.23;;
1885;SDS011;943;51.568;6.998;2022-07-05T15:59:25;6.87;;;3.10;;
1885;SDS011;943;51.568;6.998;2022-07-05T16:01:54;5.43;;;2.90;;
1885;SDS011;943;51.568;6.998;2022-07-05T16:04:21;5.20;;;2.67;;
1885;SDS011;943;51.568;6.998;2022-07-05T16:06:56;5.40;;;2.37;;
1885;SDS011;943;51.568;6.998;2022-07-05T16:09:25;6.00;;;2.20;;
1885;SDS011;943;51.568;6.998;2022-07-05T16:11:53;13.83;;;2.17;;
1885;SDS011;943;51.568;6.998;2022-07-05T16:14:21;5.63;;;2.50;;
1885;SDS011;943;51.568;6.998;2022-07-05T16:16:49;2.80;;;1.87;;
1885;SDS011;943;51.568;6.998;2022-07-05T16:19:17;4.90;;;1.97;;
1885;SDS011;943;51.568;6.998;2022-07-05T16:21:45;5.63;;;1.90;;
1885;SDS011;943;51.568;6.998;2022-07-05T16:24:19;2.97;;;1.90;;
1885;SDS011;943;51.568;6.998;2022-07-05T16:26:48;3.90;;;1.83;;